Time;durP1;ratioP1;P1;durP2;ratioP2;P2;SDS_P1;SDS_P2;PMS_P1;PMS_P2;Temp;Humidity;BMP_temperature;BMP_pressure;BME280_temperature;BME280_humidity;BME280_pressure;Samples;Min_cycle;Max_cycle;Signal;HPM_P1;HPM_P2
2023/12/02 00:00:44;;;;;;;40.20;16.17;;;-1.50;99.90;;;;;;4923864;29;20049;-83
2023/12/02 00:03:11;;;;;;;46.00;17.30;;;-1.50;99.90;;;;;;4914720;29;20048;-83
2023/12/02 00:05:37;;;;;;;39.60;16.42;;;-1.50;99.90;;;;;;4930310;29;20067;-83
2023/12/02 00:08:04;;;;;;;40.90;17.23;;;-0.70;99.90;;;;;;4915062;29;20056;-83
2023/12/02 00:10:30;;;;;;;42.80;17.08;;;-1.10;99.90;;;;;;4930275;29;20055;-83
2023/12/02 00:12:57;;;;;;;39.53;17.23;;;-1.50;99.90;;;;;;4926490;29;20455;-83
2023/12/02 00:15:24;;;;;;;41.38;16.75;;;-1.50;99.90;;;;;;4930686;29;20048;-82
2023/12/02 00:17:51;;;;;;;43.13;17.40;;;-1.40;99.90;;;;;;4912204;29;20040;-83
2023/12/02 00:20:17;;;;;;;38.33;16.27;;;-1.50;99.90;;;;;;4914642;29;20047;-83
2023/12/02 00:22:44;;;;;;;41.53;15.95;;;-1.40;99.90;;;;;;4930529;29;20048;-83
2023/12/02 00:25:10;;;;;;;39.28;16.30;;;-1.40;99.90;;;;;;4930378;29;20509;-83
2023/12/02 00:27:37;;;;;;;43.63;17.13;;;-1.40;99.90;;;;;;4914502;29;20045;-83
2023/12/02 00:30:04;;;;;;;36.30;16.10;;;-1.40;99.90;;;;;;4930120;29;20386;-82
2023/12/02 00:32:31;;;;;;;42.60;16.77;;;-1.40;99.90;;;;;;4926479;29;20045;-83
2023/12/02 00:34:58;;;;;;;40.33;16.30;;;-1.40;99.90;;;;;;4909749;29;20540;-83
2023/12/02 00:37:24;;;;;;;43.80;17.65;;;-1.30;99.90;;;;;;4944295;29;20048;-83
2023/12/02 00:39:51;;;;;;;41.30;17.33;;;-1.40;99.90;;;;;;4915060;29;20152;-83
2023/12/02 00:42:18;;;;;;;38.80;15.77;;;-1.30;99.90;;;;;;4930546;29;20036;-83
2023/12/02 00:44:44;;;;;;;37.17;15.63;;;-1.30;99.90;;;;;;4914871;29;20052;-83
2023/12/02 00:47:11;;;;;;;38.88;16.70;;;-1.30;99.90;;;;;;4925337;29;20048;-83
2023/12/02 00:49:38;;;;;;;42.25;16.02;;;-1.30;99.90;;;;;;4912991;29;20041;-83
2023/12/02 00:52:04;;;;;;;39.03;15.65;;;-1.30;99.90;;;;;;4923408;29;20536;-83
2023/12/02 00:54:33;;;;;;;40.72;16.42;;;-1.30;99.90;;;;;;4910656;29;20501;-83
2023/12/02 00:57:00;;;;;;;36.80;16.30;;;-1.30;99.90;;;;;;4923522;29;20055;-83
2023/12/02 00:59:27;;;;;;;37.22;15.02;;;-1.30;99.90;;;;;;4925387;29;20041;-83
2023/12/02 01:01:53;;;;;;;41.80;16.15;;;-1.30;99.90;;;;;;4916898;29;20048;-83
2023/12/02 01:04:20;;;;;;;45.03;17.25;;;-1.30;99.90;;;;;;4918091;29;20062;-82
2023/12/02 01:06:46;;;;;;;39.70;17.27;;;-1.30;99.90;;;;;;4933623;29;20498;-83
2023/12/02 01:09:13;;;;;;;38.63;16.55;;;-1.30;99.90;;;;;;4933680;29;20037;-82
2023/12/02 01:11:40;;;;;;;38.70;15.45;;;-1.20;99.90;;;;;;4913198;29;20041;-82
2023/12/02 01:14:06;;;;;;;42.05;16.27;;;-1.30;99.90;;;;;;4915799;29;20044;-83
2023/12/02 01:16:33;;;;;;;41.13;16.95;;;-1.20;99.90;;;;;;4949434;29;20080;-83
2023/12/02 01:19:00;;;;;;;37.42;15.43;;;-1.20;99.90;;;;;;4933640;29;20036;-82
2023/12/02 01:21:26;;;;;;;37.85;15.50;;;-1.30;99.90;;;;;;4918069;29;20546;-83
2023/12/02 01:23:53;;;;;;;39.00;16.33;;;-0.20;99.90;;;;;;4914697;29;20032;-83
2023/12/02 01:26:20;;;;;;;42.13;16.48;;;-1.30;99.90;;;;;;4933399;29;20045;-83
2023/12/02 01:28:47;;;;;;;39.63;16.58;;;-1.30;99.90;;;;;;4933623;29;20124;-83
2023/12/02 01:31:13;;;;;;;38.00;16.13;;;-1.30;99.90;;;;;;4918050;29;20458;-83
2023/12/02 01:33:40;;;;;;;38.97;17.30;;;-1.30;99.90;;;;;;4933343;29;20067;-82
2023/12/02 01:36:11;;;;;;;37.78;15.57;;;-1.30;99.90;;;;;;4917683;29;20055;-83
2023/12/02 01:38:38;;;;;;;36.92;15.95;;;-1.30;99.90;;;;;;4902598;29;20409;-83
2023/12/02 01:41:05;;;;;;;37.88;15.50;;;-0.70;99.90;;;;;;4933279;29;20044;-83
2023/12/02 01:43:31;;;;;;;37.35;16.63;;;-1.20;99.90;;;;;;4913090;29;20060;-83
2023/12/02 01:45:58;;;;;;;42.60;16.52;;;-1.30;99.90;;;;;;4901246;29;20128;-83
2023/12/02 01:48:29;;;;;;;38.72;16.92;;;-1.30;99.90;;;;;;4924038;29;20052;-83
2023/12/02 01:50:56;;;;;;;42.05;16.73;;;-1.30;99.90;;;;;;4917569;29;20206;-83
2023/12/02 01:53:23;;;;;;;37.38;16.90;;;-1.30;99.90;;;;;;4932895;29;20056;-83
2023/12/02 01:55:51;;;;;;;39.13;16.13;;;-1.20;99.90;;;;;;4929785;29;20033;-83
2023/12/02 01:58:19;;;;;;;42.90;18.02;;;-1.30;99.90;;;;;;4926757;29;20041;-83
2023/12/02 02:00:46;;;;;;;44.25;17.35;;;-1.30;99.90;;;;;;4911659;29;20738;-83
2023/12/02 02:03:12;;;;;;;40.42;16.63;;;-1.30;99.90;;;;;;4917399;29;20048;-83
2023/12/02 02:05:39;;;;;;;38.53;16.45;;;-1.30;99.90;;;;;;4916781;29;20056;-83
2023/12/02 02:08:06;;;;;;;42.97;17.15;;;-1.30;99.90;;;;;;4932877;29;20048;-83
2023/12/02 02:10:32;;;;;;;41.97;15.63;;;-1.20;99.90;;;;;;4917062;29;20443;-83
2023/12/02 02:12:59;;;;;;;57.08;22.63;;;-1.30;99.90;;;;;;4916136;29;20096;-83
2023/12/02 02:15:25;;;;;;;57.28;21.80;;;-1.30;99.90;;;;;;4932928;29;20036;-83
2023/12/02 02:17:52;;;;;;;49.28;19.10;;;-1.30;99.90;;;;;;4916954;29;20494;-83
2023/12/02 02:20:19;;;;;;;48.15;18.08;;;-1.30;99.90;;;;;;4917103;29;20044;-83
2023/12/02 02:22:46;;;;;;;40.50;16.90;;;-1.20;99.90;;;;;;4932799;29;20400;-82
2023/12/02 02:25:12;;;;;;;40.30;17.75;;;-1.30;99.90;;;;;;4915337;29;20044;-83
2023/12/02 02:27:39;;;;;;;44.30;18.27;;;-1.20;99.90;;;;;;4931843;29;20066;-82
2023/12/02 02:30:06;;;;;;;38.85;17.23;;;-1.20;99.90;;;;;;4907164;29;20051;-83
2023/12/02 02:32:33;;;;;;;41.90;16.88;;;-1.20;99.90;;;;;;4901178;29;20056;-83
2023/12/02 02:35:00;;;;;;;43.95;18.38;;;-1.20;99.90;;;;;;4910018;29;20482;-83
2023/12/02 02:37:26;;;;;;;44.17;19.05;;;-1.20;99.90;;;;;;4915279;29;20040;-83
2023/12/02 02:39:53;;;;;;;43.33;17.40;;;-1.20;99.90;;;;;;4932422;29;20052;-83
2023/12/02 02:42:20;;;;;;;46.42;18.00;;;-0.50;99.90;;;;;;4932167;29;20100;-83
2023/12/02 02:44:47;;;;;;;37.80;16.42;;;-1.20;99.90;;;;;;4916244;29;20131;-83
2023/12/02 02:47:13;;;;;;;43.22;16.77;;;-1.20;99.90;;;;;;4927685;29;20037;-83
2023/12/02 02:49:40;;;;;;;40.85;16.92;;;-1.20;99.90;;;;;;4910810;29;20490;-83
2023/12/02 02:52:06;;;;;;;40.80;16.17;;;-1.20;99.90;;;;;;4910939;29;20040;-83
2023/12/02 02:54:33;;;;;;;39.38;16.70;;;-1.20;99.90;;;;;;4910407;29;20108;-83
2023/12/02 02:57:03;;;;;;;39.58;15.88;;;-1.20;99.90;;;;;;4915922;29;20048;-83
2023/12/02 02:59:30;;;;;;;39.88;16.65;;;-1.20;99.90;;;;;;4926827;29;20447;-83
2023/12/02 03:01:56;;;;;;;41.53;16.77;;;-1.20;99.90;;;;;;4923883;29;20041;-83
2023/12/02 03:04:23;;;;;;;39.25;15.95;;;-1.20;99.90;;;;;;4928298;29;20135;-83
2023/12/02 03:06:50;;;;;;;41.88;16.60;;;-1.20;99.90;;;;;;4909351;29;20421;-82
2023/12/02 03:09:17;;;;;;;42.88;15.88;;;-1.20;99.90;;;;;;4931396;29;20036;-83
2023/12/02 03:11:45;;;;;;;42.63;17.45;;;-1.20;99.90;;;;;;4931592;29;20049;-83
2023/12/02 03:14:12;;;;;;;37.17;16.25;;;-1.20;99.90;;;;;;4931390;29;20561;-83
2023/12/02 03:16:39;;;;;;;39.55;16.88;;;-1.20;99.90;;;;;;4931450;29;20052;-82
2023/12/02 03:19:05;;;;;;;38.25;15.50;;;-1.20;99.90;;;;;;4915863;29;20048;-83
2023/12/02 03:21:32;;;;;;;42.40;17.00;;;-0.50;99.90;;;;;;4915106;29;20052;-83
2023/12/02 03:23:59;;;;;;;41.67;16.70;;;-1.20;99.90;;;;;;4915515;29;20052;-83
2023/12/02 03:26:26;;;;;;;38.28;17.38;;;-1.20;99.90;;;;;;4909838;29;20064;-82
2023/12/02 03:28:52;;;;;;;36.03;16.40;;;-1.20;99.90;;;;;;4910202;29;20032;-83
2023/12/02 03:31:19;;;;;;;41.80;16.88;;;-1.20;99.90;;;;;;4914938;29;20041;-82
2023/12/02 03:33:46;;;;;;;37.85;15.82;;;-1.20;99.90;;;;;;4946203;29;20119;-83
2023/12/02 03:36:12;;;;;;;36.15;14.98;;;-1.20;99.90;;;;;;4915207;29;20128;-83
2023/12/02 03:38:40;;;;;;;40.03;16.10;;;-1.20;99.90;;;;;;4915357;29;20048;-83
2023/12/02 03:41:08;;;;;;;40.75;16.17;;;-1.20;99.90;;;;;;4915062;29;20040;-83
2023/12/02 03:43:35;;;;;;;42.53;17.65;;;-0.20;99.90;;;;;;4901732;29;20052;-83
2023/12/02 03:46:02;;;;;;;40.30;16.33;;;-1.20;99.90;;;;;;4909185;29;20049;-83
2023/12/02 03:48:29;;;;;;;43.13;17.70;;;-1.20;99.90;;;;;;4912554;29;20503;-83
2023/12/02 03:50:55;;;;;;;37.35;15.73;;;-1.20;99.90;;;;;;4918959;29;20117;-83
2023/12/02 03:53:22;;;;;;;37.45;15.50;;;-1.20;99.90;;;;;;4930916;29;20123;-83
2023/12/02 03:55:49;;;;;;;38.30;16.05;;;-1.20;99.90;;;;;;4919616;29;20040;-83
2023/12/02 03:58:15;;;;;;;40.90;16.38;;;-1.20;99.90;;;;;;4913105;29;20036;-82
2023/12/02 04:00:42;;;;;;;38.25;15.40;;;-0.20;99.90;;;;;;4915074;29;20036;-83
2023/12/02 04:03:08;;;;;;;39.05;16.08;;;-1.20;99.90;;;;;;4930320;29;20052;-83
2023/12/02 04:05:35;;;;;;;40.65;16.60;;;-0.50;99.90;;;;;;4912819;29;20091;-83
2023/12/02 04:08:02;;;;;;;39.53;16.33;;;-1.20;99.90;;;;;;4905831;29;20557;-83
2023/12/02 04:10:29;;;;;;;36.30;15.60;;;-1.20;99.90;;;;;;4907354;29;20044;-82
2023/12/02 04:12:56;;;;;;;38.83;16.48;;;-1.20;99.90;;;;;;4930770;29;20127;-83
2023/12/02 04:15:22;;;;;;;40.08;16.35;;;-0.30;99.90;;;;;;4914444;29;20040;-83
2023/12/02 04:17:49;;;;;;;37.20;16.35;;;-1.20;99.90;;;;;;4914990;29;20131;-83
2023/12/02 04:20:15;;;;;;;38.38;15.88;;;-1.20;99.90;;;;;;4914945;29;20040;-83
2023/12/02 04:22:43;;;;;;;36.80;15.95;;;-0.60;99.90;;;;;;4928956;29;20065;-83
2023/12/02 04:25:10;;;;;;;34.53;16.05;;;-0.50;99.90;;;;;;4914743;29;20671;-83
2023/12/02 04:27:36;;;;;;;37.85;16.38;;;-1.20;99.90;;;;;;4930489;29;20040;-83
2023/12/02 04:30:04;;;;;;;34.67;15.77;;;-1.10;99.90;;;;;;4914641;29;20072;-84
2023/12/02 04:32:30;;;;;;;39.72;16.35;;;-1.20;99.90;;;;;;4914698;29;21097;-83
2023/12/02 04:34:57;;;;;;;37.05;14.85;;;-1.10;99.90;;;;;;4925916;29;20056;-82
2023/12/02 04:37:24;;;;;;;37.38;15.65;;;-1.10;99.90;;;;;;4934475;29;20430;-83
2023/12/02 04:39:54;;;;;;;36.72;15.27;;;-1.10;99.90;;;;;;4944541;29;20052;-83
2023/12/02 04:42:21;;;;;;;37.38;15.93;;;-1.10;99.90;;;;;;4920782;29;20037;-83
2023/12/02 04:44:48;;;;;;;34.47;14.52;;;-1.20;99.90;;;;;;4936645;29;20414;-83
2023/12/02 04:47:14;;;;;;;38.95;16.15;;;-1.10;99.90;;;;;;4936570;29;20135;-83
2023/12/02 04:49:41;;;;;;;37.10;15.82;;;-1.20;99.90;;;;;;4920957;29;20068;-83
2023/12/02 04:52:08;;;;;;;36.17;15.23;;;-1.20;99.90;;;;;;4920830;29;20124;-83
2023/12/02 04:54:35;;;;;;;35.78;15.20;;;-1.20;99.90;;;;;;4915405;29;20405;-83
2023/12/02 04:57:01;;;;;;;36.28;15.30;;;-1.20;99.90;;;;;;4926590;29;20119;-82
2023/12/02 04:59:28;;;;;;;33.17;15.18;;;-1.20;99.90;;;;;;4929871;29;20072;-83
2023/12/02 05:01:55;;;;;;;33.17;14.50;;;-1.20;99.90;;;;;;4919934;29;20036;-83
2023/12/02 05:04:21;;;;;;;40.83;16.15;;;-1.20;99.90;;;;;;4923098;29;20055;-83
2023/12/02 05:06:50;;;;;;;38.63;15.65;;;-1.20;99.90;;;;;;4927532;29;20053;-83
2023/12/02 05:09:17;;;;;;;35.72;14.65;;;-1.20;99.90;;;;;;4928602;29;20454;-83
2023/12/02 05:11:43;;;;;;;37.25;15.57;;;-0.30;99.90;;;;;;4920652;29;20075;-83
2023/12/02 05:14:10;;;;;;;32.15;14.30;;;0.00;99.90;;;;;;4919427;29;20037;-83
2023/12/02 05:16:41;;;;;;;37.10;14.88;;;-1.20;99.90;;;;;;4920452;29;20454;-83
2023/12/02 05:19:08;;;;;;;34.03;14.52;;;-1.20;99.90;;;;;;4916574;29;20044;-82
2023/12/02 05:21:39;;;;;;;39.75;15.70;;;-1.20;99.90;;;;;;4928995;29;20046;-83
2023/12/02 05:24:06;;;;;;;34.30;14.80;;;-1.20;99.90;;;;;;4912040;29;20093;-83
2023/12/02 05:26:32;;;;;;;32.03;14.82;;;-1.20;99.90;;;;;;4919508;29;20055;-83
2023/12/02 05:29:01;;;;;;;33.95;14.13;;;-1.30;99.90;;;;;;4917331;29;20445;-82
2023/12/02 05:31:28;;;;;;;34.00;15.13;;;-1.30;99.90;;;;;;4919938;29;20494;-83
2023/12/02 05:33:55;;;;;;;33.85;14.57;;;-1.20;99.90;;;;;;4916722;29;20052;-83
2023/12/02 05:36:22;;;;;;;36.70;14.82;;;-1.30;99.90;;;;;;4916421;29;20068;-83
2023/12/02 05:38:48;;;;;;;36.22;14.50;;;-1.30;99.90;;;;;;4932762;29;20079;-83
2023/12/02 05:41:15;;;;;;;39.55;14.75;;;-1.20;99.90;;;;;;4927378;29;20051;-83
2023/12/02 05:43:42;;;;;;;37.38;16.08;;;-0.90;99.90;;;;;;4936073;29;20072;-83
2023/12/02 05:46:15;;;;;;;29.50;14.55;;;-1.20;99.90;;;;;;4914399;29;20055;-83
2023/12/02 05:48:45;;;;;;;37.22;15.48;;;-1.30;99.90;;;;;;4914534;29;20045;-83
2023/12/02 05:51:13;;;;;;;33.67;14.93;;;-1.20;99.90;;;;;;4917263;29;20044;-82
2023/12/02 05:53:40;;;;;;;36.03;15.20;;;-1.20;99.90;;;;;;4932307;29;20092;-83
2023/12/02 05:56:08;;;;;;;38.15;15.13;;;-1.20;99.90;;;;;;4933228;29;20045;-83
2023/12/02 05:58:35;;;;;;;38.92;14.80;;;-1.20;99.90;;;;;;4917415;29;20119;-83
2023/12/02 06:01:02;;;;;;;34.13;14.98;;;-1.20;99.90;;;;;;4922603;29;20051;-83
2023/12/02 06:03:29;;;;;;;35.45;16.20;;;-1.00;99.90;;;;;;4912660;29;20044;-83
2023/12/02 06:05:55;;;;;;;34.25;15.10;;;-1.20;99.90;;;;;;4932357;29;20057;-82
2023/12/02 06:08:22;;;;;;;35.30;14.30;;;-1.20;99.90;;;;;;4930460;29;20405;-83
2023/12/02 06:10:49;;;;;;;30.73;14.13;;;-0.50;99.90;;;;;;4904746;29;20052;-83
2023/12/02 06:13:15;;;;;;;33.72;13.90;;;-1.20;99.90;;;;;;4917011;29;20033;-83
2023/12/02 06:15:42;;;;;;;32.58;14.15;;;-1.20;99.90;;;;;;4917059;29;20094;-82
2023/12/02 06:18:08;;;;;;;36.50;14.90;;;-1.20;99.90;;;;;;4916973;29;20062;-83
2023/12/02 06:20:36;;;;;;;33.97;14.95;;;-1.20;99.90;;;;;;4930960;29;20033;-83
2023/12/02 06:23:02;;;;;;;36.10;14.60;;;-1.20;99.90;;;;;;4915999;29;20047;-83
2023/12/02 06:25:29;;;;;;;34.63;15.00;;;-1.20;99.90;;;;;;4928181;29;20132;-83
2023/12/02 06:27:56;;;;;;;33.50;14.75;;;-1.20;99.90;;;;;;4926152;29;20124;-83
2023/12/02 06:30:22;;;;;;;39.53;15.93;;;-1.20;99.90;;;;;;4912757;29;20135;-83
2023/12/02 06:32:49;;;;;;;32.13;15.15;;;-1.10;99.90;;;;;;4925820;29;20045;-83
2023/12/02 06:35:16;;;;;;;35.75;15.38;;;-1.20;99.90;;;;;;4920768;29;20043;-83
2023/12/02 06:37:43;;;;;;;34.38;15.68;;;-1.20;99.90;;;;;;4908637;29;20056;-83
2023/12/02 06:40:10;;;;;;;33.17;15.68;;;-1.20;99.90;;;;;;4916736;29;20040;-83
2023/12/02 06:42:37;;;;;;;34.80;15.80;;;-1.20;99.90;;;;;;4931878;29;20056;-83
2023/12/02 06:45:04;;;;;;;33.55;15.55;;;-1.20;99.90;;;;;;4931700;29;20040;-83
2023/12/02 06:47:31;;;;;;;33.75;14.18;;;-1.20;99.90;;;;;;4916075;29;20044;-82
2023/12/02 06:49:58;;;;;;;35.63;14.70;;;-1.20;99.90;;;;;;4931623;29;20367;-83
2023/12/02 06:52:24;;;;;;;36.95;16.17;;;-0.90;99.90;;;;;;4931692;29;20561;-83
2023/12/02 06:54:51;;;;;;;35.97;15.77;;;-1.10;99.90;;;;;;4947102;29;20049;-83
2023/12/02 06:57:17;;;;;;;37.97;16.38;;;-1.10;99.90;;;;;;4914406;29;20044;-82
2023/12/02 06:59:48;;;;;;;28.88;14.15;;;-0.80;99.90;;;;;;4902614;29;20100;-83
2023/12/02 07:02:15;;;;;;;37.03;15.80;;;-1.20;99.90;;;;;;4916226;29;20044;-83
2023/12/02 07:04:41;;;;;;;33.75;14.60;;;-1.20;99.90;;;;;;4904212;29;20115;-83
2023/12/02 07:07:08;;;;;;;36.22;15.43;;;-0.50;99.90;;;;;;4930532;29;20051;-83
2023/12/02 07:09:35;;;;;;;33.40;14.93;;;-1.20;99.90;;;;;;4931547;29;20449;-83
2023/12/02 07:12:02;;;;;;;35.55;15.02;;;-1.10;99.90;;;;;;4921794;29;20040;-83
2023/12/02 07:14:28;;;;;;;35.10;14.57;;;-1.20;99.90;;;;;;4910626;29;20037;-83
2023/12/02 07:16:55;;;;;;;30.42;14.48;;;-1.20;99.90;;;;;;4915922;29;20049;-83
2023/12/02 07:19:22;;;;;;;33.50;15.20;;;-1.20;99.90;;;;;;4906855;29;20041;-83
2023/12/02 07:21:48;;;;;;;31.95;14.38;;;-1.20;99.90;;;;;;4925829;29;20111;-83
2023/12/02 07:24:15;;;;;;;30.50;15.07;;;-1.20;99.90;;;;;;4915424;29;20048;-83
2023/12/02 07:26:41;;;;;;;31.50;14.52;;;-1.20;99.90;;;;;;4909466;29;20040;-83
2023/12/02 07:29:09;;;;;;;38.55;15.57;;;-1.10;99.90;;;;;;4928593;29;20060;-83
2023/12/02 07:31:36;;;;;;;30.42;14.63;;;-1.20;99.90;;;;;;4915190;29;20048;-83
2023/12/02 07:34:02;;;;;;;33.40;14.68;;;-1.20;99.90;;;;;;4909827;29;20051;-83
2023/12/02 07:36:29;;;;;;;34.47;15.25;;;-1.20;99.90;;;;;;4930796;29;20418;-83
2023/12/02 07:38:56;;;;;;;33.40;14.63;;;-1.20;99.90;;;;;;4915270;29;20052;-83
2023/12/02 07:41:22;;;;;;;33.42;14.88;;;-1.30;99.90;;;;;;4930363;29;20044;-83
2023/12/02 07:43:49;;;;;;;34.72;14.43;;;-1.20;99.90;;;;;;4929851;29;20052;-83
2023/12/02 07:46:15;;;;;;;33.33;14.48;;;-1.30;99.90;;;;;;4914204;29;20517;-83
2023/12/02 07:48:42;;;;;;;31.85;14.68;;;-1.30;99.90;;;;;;4899548;29;20041;-83
2023/12/02 07:51:09;;;;;;;30.33;15.23;;;-1.30;99.90;;;;;;4919366;29;20040;-83
2023/12/02 07:53:36;;;;;;;37.70;14.73;;;-1.30;99.90;;;;;;4940226;29;20099;-82
2023/12/02 07:56:03;;;;;;;34.15;14.60;;;-1.30;99.90;;;;;;4915159;29;20091;-83
2023/12/02 07:58:30;;;;;;;30.65;14.77;;;-1.30;99.90;;;;;;4910294;29;20483;-83
2023/12/02 08:00:56;;;;;;;29.27;14.07;;;-1.30;99.90;;;;;;4919540;29;20071;-83
2023/12/02 08:03:23;;;;;;;35.25;15.18;;;-1.30;99.90;;;;;;4930091;29;20601;-83
2023/12/02 08:05:50;;;;;;;35.60;14.50;;;-1.30;99.90;;;;;;4899563;29;20068;-83
2023/12/02 08:08:17;;;;;;;34.72;15.02;;;-1.20;99.90;;;;;;4919860;29;20060;-83
2023/12/02 08:10:46;;;;;;;33.45;14.57;;;-1.20;99.90;;;;;;4905645;29;20041;-83
2023/12/02 08:13:13;;;;;;;31.83;14.40;;;-1.30;99.90;;;;;;4914781;29;20044;-83
2023/12/02 08:15:39;;;;;;;33.05;14.75;;;-1.30;99.90;;;;;;4914845;29;20184;-83
2023/12/02 08:18:06;;;;;;;35.50;15.13;;;0.00;99.90;;;;;;4909959;29;20052;-83
2023/12/02 08:20:33;;;;;;;33.13;15.05;;;0.00;99.90;;;;;;4910114;29;20048;-83
2023/12/02 08:22:59;;;;;;;32.80;15.05;;;-1.20;99.90;;;;;;4904734;29;20037;-83
2023/12/02 08:25:26;;;;;;;33.80;15.45;;;-1.30;99.90;;;;;;4914623;29;20052;-83
2023/12/02 08:27:52;;;;;;;31.08;14.63;;;-1.20;99.90;;;;;;4914253;29;20409;-83
2023/12/02 08:30:19;;;;;;;34.42;14.70;;;-1.10;99.90;;;;;;4914513;29;20049;-84
2023/12/02 08:32:46;;;;;;;31.58;14.85;;;-1.20;99.90;;;;;;4917168;29;20064;-83
2023/12/02 08:35:12;;;;;;;34.05;15.02;;;-1.20;99.90;;;;;;4918907;29;20390;-84
2023/12/02 08:37:39;;;;;;;32.10;15.40;;;-1.10;99.90;;;;;;4930123;29;20048;-83
2023/12/02 08:40:06;;;;;;;33.08;14.88;;;-1.10;99.90;;;;;;4921792;29;20524;-83
2023/12/02 08:42:33;;;;;;;33.70;14.60;;;-1.10;99.90;;;;;;4927731;29;20041;-83
2023/12/02 08:45:02;;;;;;;35.35;13.98;;;-1.00;99.90;;;;;;4929557;29;20042;-83
2023/12/02 08:47:29;;;;;;;38.55;15.43;;;-1.00;99.90;;;;;;4929563;29;20061;-84
2023/12/02 08:49:55;;;;;;;32.03;13.95;;;-1.00;99.90;;;;;;4914463;29;20052;-83
2023/12/02 08:52:22;;;;;;;31.60;14.65;;;-1.00;99.90;;;;;;4929503;29;20569;-83
2023/12/02 08:54:49;;;;;;;30.73;14.35;;;-1.00;99.90;;;;;;4917984;29;20043;-83
2023/12/02 08:57:15;;;;;;;34.42;15.48;;;-0.90;99.90;;;;;;4916282;29;20104;-83
2023/12/02 08:59:42;;;;;;;37.00;15.90;;;-1.00;99.90;;;;;;4920951;29;20045;-84
2023/12/02 09:02:09;;;;;;;34.55;15.00;;;-0.90;99.90;;;;;;4929076;29;20048;-83
2023/12/02 09:04:36;;;;;;;33.45;15.73;;;-0.90;99.90;;;;;;4925586;29;20064;-84
2023/12/02 09:07:03;;;;;;;34.63;15.82;;;0.50;99.90;;;;;;4923061;29;20426;-84
2023/12/02 09:09:30;;;;;;;33.28;15.07;;;-0.80;99.90;;;;;;4927380;29;20494;-83
2023/12/02 09:11:57;;;;;;;34.00;14.98;;;-0.80;99.90;;;;;;4914181;29;20043;-84
2023/12/02 09:14:23;;;;;;;32.00;15.60;;;-0.80;99.90;;;;;;4928926;29;20051;-83
2023/12/02 09:16:50;;;;;;;32.90;15.32;;;-0.80;99.90;;;;;;4913846;29;20047;-83
2023/12/02 09:19:51;;;;;;;34.65;16.00;;;-0.20;99.90;;;;;;4912482;29;20100;-83
2023/12/02 09:22:47;;;;;;;34.15;14.43;;;-0.70;99.90;;;;;;4904597;29;20055;-84
2023/12/02 09:25:25;;;;;;;35.00;16.03;;;-0.70;99.90;;;;;;4912542;29;20522;-84
2023/12/02 09:28:05;;;;;;;33.97;15.10;;;-0.70;99.90;;;;;;4916426;29;20049;-84
2023/12/02 09:30:32;;;;;;;35.65;15.82;;;-0.60;99.90;;;;;;4932794;29;20421;-83
2023/12/02 09:32:59;;;;;;;33.63;14.82;;;-0.60;99.90;;;;;;4910102;29;20047;-84
2023/12/02 09:35:26;;;;;;;33.83;14.98;;;-0.60;99.90;;;;;;4911796;29;20037;-85
2023/12/02 09:37:58;;;;;;;39.20;17.90;;;-0.60;99.90;;;;;;4909828;29;20060;-86
2023/12/02 09:40:48;;;;;;;42.15;20.42;;;0.40;99.90;;;;;;4926569;29;20115;-86
2023/12/02 09:43:21;;;;;;;55.35;24.38;;;-0.50;99.90;;;;;;4915330;29;20116;-84
2023/12/02 09:46:09;;;;;;;38.42;17.63;;;-0.60;99.90;;;;;;4933057;29;20528;-84
2023/12/02 09:48:55;;;;;;;38.78;17.17;;;-0.50;99.90;;;;;;4910942;29;20086;-84
2023/12/02 09:51:46;;;;;;;33.25;15.75;;;-0.50;99.90;;;;;;4926536;29;20041;-84
2023/12/02 09:54:24;;;;;;;32.88;14.80;;;-0.50;99.90;;;;;;4915352;29;20029;-84
2023/12/02 09:56:58;;;;;;;33.53;15.32;;;-0.50;99.90;;;;;;4911496;29;20041;-84
2023/12/02 09:59:48;;;;;;;36.97;15.02;;;-0.50;99.90;;;;;;4921749;29;20038;-84
2023/12/02 10:02:14;;;;;;;34.00;15.25;;;-0.50;99.90;;;;;;4916032;29;20391;-84
2023/12/02 10:05:08;;;;;;;33.40;14.77;;;-0.40;99.90;;;;;;4931898;29;20167;-84
2023/12/02 10:07:56;;;;;;;40.03;16.73;;;-0.40;99.90;;;;;;4909637;29;20044;-84
2023/12/02 10:10:27;;;;;;;32.40;15.23;;;-0.30;99.90;;;;;;4916739;29;20383;-84
2023/12/02 10:13:05;;;;;;;34.40;15.65;;;-0.30;99.90;;;;;;4917001;29;20040;-84
2023/12/02 10:15:34;;;;;;;30.45;15.00;;;-0.30;99.90;;;;;;4913180;29;20097;-84
2023/12/02 10:18:13;;;;;;;30.30;14.60;;;-0.30;99.90;;;;;;4916367;29;20109;-84
2023/12/02 10:20:42;;;;;;;32.38;14.75;;;-0.30;99.90;;;;;;4910010;29;20062;-83
2023/12/02 10:23:31;;;;;;;32.75;15.80;;;-0.20;99.90;;;;;;4912720;29;20494;-83
2023/12/02 10:26:06;;;;;;;31.27;14.70;;;0.00;99.90;;;;;;4909394;29;20072;-83
2023/12/02 10:28:56;;;;;;;32.05;15.63;;;-0.20;99.90;;;;;;4913661;29;20490;-84
2023/12/02 10:31:28;;;;;;;35.42;15.57;;;-0.20;99.90;;;;;;4929062;29;20041;-83
2023/12/02 10:34:19;;;;;;;34.80;15.43;;;-0.20;99.90;;;;;;4913586;29;20052;-83
2023/12/02 10:36:50;;;;;;;33.47;16.75;;;-0.20;99.90;;;;;;4918201;29;20462;-83
2023/12/02 10:39:46;;;;;;;36.92;17.13;;;-0.20;99.90;;;;;;4913657;29;20048;-83
2023/12/02 10:42:23;;;;;;;33.05;14.98;;;-0.20;99.90;;;;;;4910319;29;20131;-82
2023/12/02 10:45:00;;;;;;;34.70;15.55;;;-0.20;99.90;;;;;;4916476;29;20817;-84
2023/12/02 10:47:28;;;;;;;35.10;15.75;;;-0.20;99.90;;;;;;4925045;29;20144;-83
2023/12/02 10:49:56;;;;;;;35.38;16.75;;;-0.20;99.90;;;;;;4916010;29;20044;-84
2023/12/02 10:52:24;;;;;;;37.78;18.20;;;-0.10;99.90;;;;;;4922347;29;20033;-84
2023/12/02 10:54:53;;;;;;;34.33;15.95;;;-0.20;99.90;;;;;;4930998;29;20052;-83
2023/12/02 10:57:22;;;;;;;33.25;15.02;;;-0.10;99.90;;;;;;4920869;29;20052;-84
2023/12/02 11:00:07;;;;;;;33.38;14.90;;;0.70;99.90;;;;;;4916164;29;20044;-84
2023/12/02 11:02:54;;;;;;;36.30;15.88;;;-0.10;99.90;;;;;;4916043;29;20052;-83
2023/12/02 11:05:25;;;;;;;34.97;16.10;;;-0.10;99.90;;;;;;4915567;29;20060;-83
2023/12/02 11:07:58;;;;;;;35.10;15.25;;;0.00;99.90;;;;;;4926311;29;20056;-84
2023/12/02 11:10:47;;;;;;;36.60;16.02;;;0.00;99.90;;;;;;4920894;29;20047;-84
2023/12/02 11:13:23;;;;;;;35.33;15.88;;;1.30;99.90;;;;;;4911295;29;20064;-84
2023/12/02 11:16:18;;;;;;;32.97;14.75;;;0.10;99.90;;;;;;4930013;29;20401;-84
2023/12/02 11:19:21;;;;;;;31.88;15.48;;;0.10;99.90;;;;;;4913290;29;20080;-84
2023/12/02 11:22:06;;;;;;;36.38;15.50;;;0.10;99.90;;;;;;4878015;29;20073;-85
2023/12/02 11:24:39;;;;;;;32.47;14.55;;;0.10;99.90;;;;;;4927112;29;20060;-85
2023/12/02 11:27:47;;;;;;;37.53;15.27;;;0.10;99.90;;;;;;4926656;29;20047;-85
2023/12/02 11:30:22;;;;;;;34.78;15.50;;;0.20;99.90;;;;;;4914763;29;20029;-85
2023/12/02 11:33:10;;;;;;;39.90;15.02;;;0.20;99.90;;;;;;4922075;29;20113;-85
2023/12/02 11:36:06;;;;;;;34.20;14.50;;;0.20;99.90;;;;;;4915190;29;20091;-85
2023/12/02 11:38:33;;;;;;;33.50;15.43;;;0.20;99.90;;;;;;4904485;29;20052;-83
2023/12/02 11:41:18;;;;;;;33.05;14.75;;;0.30;99.90;;;;;;4915137;29;20055;-84
2023/12/02 11:43:55;;;;;;;30.65;14.75;;;0.30;99.90;;;;;;4932908;29;20055;-84
2023/12/02 11:46:25;;;;;;;33.63;14.90;;;0.30;99.90;;;;;;4923257;29;20049;-85
2023/12/02 11:49:26;;;;;;;35.17;14.45;;;0.30;99.90;;;;;;4930071;29;20043;-85
2023/12/02 11:52:08;;;;;;;32.83;14.32;;;0.40;99.90;;;;;;4911065;29;20047;-85
2023/12/02 11:54:49;;;;;;;31.10;14.23;;;0.40;99.90;;;;;;4930866;29;20040;-85
2023/12/02 11:57:51;;;;;;;30.13;13.27;;;0.40;99.90;;;;;;4913084;29;20096;-85
2023/12/02 12:00:45;;;;;;;31.38;13.10;;;0.40;99.90;;;;;;4930439;29;20051;-82
2023/12/02 12:03:36;;;;;;;29.90;13.98;;;0.50;99.90;;;;;;4922102;29;20076;-87
2023/12/02 12:06:24;;;;;;;25.17;11.98;;;0.50;99.90;;;;;;4927200;29;20100;-87
2023/12/02 12:08:54;;;;;;;27.50;12.65;;;0.50;99.90;;;;;;4928459;29;20131;-86
2023/12/02 12:11:21;;;;;;;29.30;12.65;;;0.60;99.90;;;;;;4930439;29;20442;-87
2023/12/02 12:13:49;;;;;;;27.52;12.35;;;0.70;99.90;;;;;;4915536;29;20187;-86
2023/12/02 12:16:15;;;;;;;25.55;12.23;;;0.60;99.90;;;;;;4914830;29;20048;-87
2023/12/02 12:18:42;;;;;;;24.08;11.65;;;0.70;99.90;;;;;;4930439;29;20489;-87
2023/12/02 12:21:09;;;;;;;23.20;11.32;;;1.90;99.90;;;;;;4914566;29;20041;-87
2023/12/02 12:23:36;;;;;;;27.77;11.88;;;0.70;99.90;;;;;;4915060;29;20041;-87
2023/12/02 12:26:03;;;;;;;23.83;11.77;;;0.70;99.90;;;;;;4913693;29;20060;-87
2023/12/02 12:28:35;;;;;;;22.67;10.88;;;0.80;99.90;;;;;;4927698;29;20474;-86
2023/12/02 12:31:01;;;;;;;21.63;10.38;;;0.80;99.90;;;;;;4928049;29;20413;-87
2023/12/02 12:33:29;;;;;;;21.23;10.93;;;0.90;99.90;;;;;;4930007;29;20040;-86
2023/12/02 12:35:56;;;;;;;20.50;9.88;;;1.50;99.90;;;;;;4926264;29;20041;-86
2023/12/02 12:38:22;;;;;;;21.95;9.88;;;0.90;99.90;;;;;;4930529;29;20056;-86
2023/12/02 12:40:50;;;;;;;22.30;10.10;;;1.00;99.90;;;;;;4917794;29;20057;-87